Time;durP1;ratioP1;P1;durP2;ratioP2;P2;SDS_P1;SDS_P2;PMS_P1;PMS_P2;Temp;Humidity;BMP_temperature;BMP_pressure;BME280_temperature;BME280_humidity;BME280_pressure;Samples;Min_cycle;Max_cycle;Signal;HPM_P1;HPM_P2
2022/01/03 00:01:10;;;;;;;;;;;22.10;56.80;;;;;;5044020;28;19944;-67
2022/01/03 00:03:35;;;;;;;;;;;22.10;56.80;;;;;;5043368;28;19998;-69
2022/01/03 00:06:01;;;;;;;;;;;22.10;56.80;;;;;;5044685;28;20493;-67
2022/01/03 00:08:30;;;;;;;;;;;22.10;56.80;;;;;;5038945;28;20022;-67
2022/01/03 00:10:56;;;;;;;;;;;22.10;56.90;;;;;;5045308;28;19949;-67
2022/01/03 00:13:25;;;;;;;;;;;22.10;56.90;;;;;;5046040;28;20464;-66
2022/01/03 00:15:52;;;;;;;;;;;22.00;56.80;;;;;;5045166;28;20015;-70
2022/01/03 00:18:21;;;;;;;;;;;22.00;56.80;;;;;;5044425;28;20078;-67
2022/01/03 00:20:52;;;;;;;;;;;22.00;56.90;;;;;;5045079;28;19977;-67
2022/01/03 00:23:19;;;;;;;;;;;22.00;56.90;;;;;;5044081;28;20395;-67
2022/01/03 00:25:50;;;;;;;;;;;22.00;56.90;;;;;;5036647;28;19961;-69
2022/01/03 00:28:23;;;;;;;;;;;22.00;56.90;;;;;;5043238;28;19909;-67
2022/01/03 00:30:55;;;;;;;;;;;22.00;56.90;;;;;;5043908;28;20385;-67
2022/01/03 00:33:21;;;;;;;;;;;22.00;56.90;;;;;;5040810;28;19905;-67
2022/01/03 00:35:53;;;;;;;;;;;21.90;56.90;;;;;;5045945;28;20003;-67
2022/01/03 00:38:19;;;;;;;;;;;22.00;56.90;;;;;;5046662;28;19917;-71
2022/01/03 00:40:45;;;;;;;;;;;21.90;56.90;;;;;;5048043;28;19913;-69
2022/01/03 00:43:10;;;;;;;;;;;21.90;56.90;;;;;;5048613;28;19909;-67
2022/01/03 00:45:36;;;;;;;;;;;21.90;57.00;;;;;;5047944;28;19904;-70
2022/01/03 00:48:06;;;;;;;;;;;21.90;56.90;;;;;;5041716;28;20378;-67
2022/01/03 00:50:31;;;;;;;;;;;21.90;56.90;;;;;;5048066;28;19920;-70
2022/01/03 00:52:57;;;;;;;;;;;21.90;57.00;;;;;;5048323;28;20349;-67
2022/01/03 00:55:22;;;;;;;;;;;21.90;57.00;;;;;;5048919;28;19995;-66
2022/01/03 00:57:58;;;;;;;;;;;21.90;57.00;;;;;;5045803;28;20361;-66
2022/01/03 01:00:23;;;;;;;;;;;21.80;56.90;;;;;;5046444;28;19966;-70
2022/01/03 01:03:10;;;;;;;;;;;21.80;56.90;;;;;;5048740;28;19947;-70
2022/01/03 01:05:43;;;;;;;;;;;21.80;57.00;;;;;;5045470;28;19921;-68
2022/01/03 01:08:09;;;;;;;;;;;21.70;57.00;;;;;;5046655;28;19909;-70
2022/01/03 01:10:36;;;;;;;;;;;21.80;57.00;;;;;;5043527;28;19916;-70
2022/01/03 01:13:03;;;;;;;;;;;21.80;57.00;;;;;;5047576;28;19912;-66
2022/01/03 01:15:29;;;;;;;;;;;21.70;57.00;;;;;;5048319;28;19930;-67
2022/01/03 01:17:55;;;;;;;;;;;21.70;57.00;;;;;;5049391;28;20007;-70
2022/01/03 01:20:22;;;;;;;;;;;21.70;57.00;;;;;;5045939;28;19990;-67
2022/01/03 01:22:47;;;;;;;;;;;21.70;57.00;;;;;;5044492;28;20027;-68
2022/01/03 01:27:50;;;;;;;;;;;21.70;57.00;;;;;;5044080;28;19913;-66
2022/01/03 01:30:16;;;;;;;;;;;21.70;57.00;;;;;;5043484;28;20011;-67
2022/01/03 01:32:46;;;;;;;;;;;21.70;57.00;;;;;;5047402;28;19967;-66
2022/01/03 01:35:13;;;;;;;;;;;21.70;57.00;;;;;;5048457;28;19913;-66
2022/01/03 01:37:39;;;;;;;;;;;21.70;57.00;;;;;;5047050;28;19927;-66
2022/01/03 01:40:06;;;;;;;;;;;21.70;57.00;;;;;;5044441;28;20395;-67
2022/01/03 01:42:35;;;;;;;;;;;21.60;57.00;;;;;;5048664;28;19962;-71
2022/01/03 01:45:05;;;;;;;;;;;21.60;57.00;;;;;;5044170;28;20693;-68
2022/01/03 01:47:32;;;;;;;;;;;21.60;57.00;;;;;;5045155;28;19913;-66
2022/01/03 01:50:01;;;;;;;;;;;21.60;57.00;;;;;;5045872;28;19966;-67
2022/01/03 01:52:26;;;;;;;;;;;21.60;57.00;;;;;;5042932;28;19943;-68
2022/01/03 01:54:56;;;;;;;;;;;21.60;57.00;;;;;;5033812;28;19913;-66
2022/01/03 01:57:23;;;;;;;;;;;21.60;57.00;;;;;;5044939;28;19913;-70
2022/01/03 01:59:51;;;;;;;;;;;21.60;57.00;;;;;;5042760;28;20353;-67
2022/01/03 02:02:20;;;;;;;;;;;21.50;56.90;;;;;;5040918;28;19917;-66
2022/01/03 02:04:46;;;;;;;;;;;21.50;57.00;;;;;;5042829;28;20023;-67
2022/01/03 02:07:41;;;;;;;;;;;21.50;57.00;;;;;;5039964;28;20014;-68
2022/01/03 02:10:14;;;;;;;;;;;21.50;57.00;;;;;;4999152;28;19906;-66
2022/01/03 02:12:41;;;;;;;;;;;21.50;57.00;;;;;;5038310;28;19978;-67
2022/01/03 02:15:10;;;;;;;;;;;21.50;57.00;;;;;;5043116;28;19917;-66
2022/01/03 02:17:36;;;;;;;;;;;21.50;57.00;;;;;;5044420;28;19921;-67
2022/01/03 02:20:02;;;;;;;;;;;21.50;57.00;;;;;;5048138;28;19916;-67
2022/01/03 02:22:27;;;;;;;;;;;21.50;57.10;;;;;;5046061;28;19944;-70
2022/01/03 02:24:53;;;;;;;;;;;21.50;57.00;;;;;;5046368;28;19981;-69
2022/01/03 02:27:18;;;;;;;;;;;21.50;57.00;;;;;;5040790;28;20429;-71
2022/01/03 02:29:44;;;;;;;;;;;21.40;57.00;;;;;;5040008;28;19909;-67
2022/01/03 02:32:09;;;;;;;;;;;21.40;57.00;;;;;;5042726;28;20007;-67
2022/01/03 02:34:35;;;;;;;;;;;21.40;57.00;;;;;;5044973;28;20292;-67
2022/01/03 02:37:00;;;;;;;;;;;21.40;57.00;;;;;;5045889;28;19912;-67
2022/01/03 02:39:26;;;;;;;;;;;21.40;57.00;;;;;;5042315;28;19917;-67
2022/01/03 02:41:51;;;;;;;;;;;21.40;57.00;;;;;;5045544;28;20415;-70
2022/01/03 02:44:20;;;;;;;;;;;21.40;57.00;;;;;;5043617;28;19990;-67
2022/01/03 02:46:45;;;;;;;;;;;21.40;57.00;;;;;;5042913;28;19912;-66
2022/01/03 02:49:11;;;;;;;;;;;21.40;57.00;;;;;;5047919;28;20409;-66
2022/01/03 02:51:36;;;;;;;;;;;21.40;57.00;;;;;;5041251;28;20036;-66
2022/01/03 02:54:02;;;;;;;;;;;21.30;57.00;;;;;;5046622;28;19912;-68
2022/01/03 02:56:34;;;;;;;;;;;21.30;57.00;;;;;;5045828;28;19919;-67
2022/01/03 02:59:00;;;;;;;;;;;21.40;57.00;;;;;;5042472;28;19955;-67
2022/01/03 03:01:26;;;;;;;;;;;21.40;57.00;;;;;;5044138;28;19960;-66
2022/01/03 03:03:51;;;;;;;;;;;21.30;57.00;;;;;;5044926;28;19955;-67
2022/01/03 03:06:18;;;;;;;;;;;21.30;57.00;;;;;;5041752;28;19924;-70
2022/01/03 03:08:43;;;;;;;;;;;21.30;57.10;;;;;;5043199;28;19909;-69
2022/01/03 03:11:09;;;;;;;;;;;21.30;57.00;;;;;;5047653;28;20256;-66
2022/01/03 03:13:34;;;;;;;;;;;21.30;57.00;;;;;;5047433;28;19913;-66
2022/01/03 03:16:00;;;;;;;;;;;21.40;57.00;;;;;;5041777;28;19915;-68
2022/01/03 03:18:25;;;;;;;;;;;21.30;57.00;;;;;;5043486;28;20425;-66
2022/01/03 03:20:54;;;;;;;;;;;21.30;57.00;;;;;;5048162;28;20382;-66
2022/01/03 03:23:20;;;;;;;;;;;21.30;57.00;;;;;;5040653;28;20391;-66
2022/01/03 03:25:46;;;;;;;;;;;21.30;57.00;;;;;;5043118;28;19916;-67
2022/01/03 03:28:12;;;;;;;;;;;21.30;57.10;;;;;;5046128;28;19943;-66
2022/01/03 03:30:42;;;;;;;;;;;21.30;57.10;;;;;;5045964;28;19908;-67
2022/01/03 03:33:13;;;;;;;;;;;21.30;57.10;;;;;;5044192;28;20035;-66
2022/01/03 03:35:38;;;;;;;;;;;21.30;57.10;;;;;;5045417;28;20342;-67
2022/01/03 03:38:04;;;;;;;;;;;21.20;57.00;;;;;;5045740;28;19988;-67
2022/01/03 03:40:30;;;;;;;;;;;21.20;57.00;;;;;;5040723;28;19912;-69
2022/01/03 03:42:55;;;;;;;;;;;21.20;57.00;;;;;;5043595;28;20423;-70
2022/01/03 03:45:21;;;;;;;;;;;21.20;57.10;;;;;;5043992;28;19931;-70
2022/01/03 03:47:47;;;;;;;;;;;21.30;57.10;;;;;;5046823;28;19948;-70
2022/01/03 03:50:12;;;;;;;;;;;21.20;57.10;;;;;;5042282;28;20479;-66
2022/01/03 03:52:38;;;;;;;;;;;21.20;57.10;;;;;;5042497;28;19917;-67
2022/01/03 03:55:04;;;;;;;;;;;21.20;57.10;;;;;;5040948;28;20270;-67
2022/01/03 03:57:30;;;;;;;;;;;21.20;57.10;;;;;;5046746;28;19970;-66
2022/01/03 03:59:55;;;;;;;;;;;21.20;57.10;;;;;;5045131;28;19917;-66
2022/01/03 04:02:21;;;;;;;;;;;21.20;57.10;;;;;;5044554;28;19917;-70
2022/01/03 04:04:46;;;;;;;;;;;21.20;57.10;;;;;;5044146;28;20059;-66
2022/01/03 04:07:12;;;;;;;;;;;21.20;57.10;;;;;;5045000;28;19915;-67
2022/01/03 04:09:37;;;;;;;;;;;21.20;57.10;;;;;;5045105;28;20046;-65
2022/01/03 04:12:03;;;;;;;;;;;21.20;57.10;;;;;;5046814;28;19905;-67
2022/01/03 04:14:28;;;;;;;;;;;21.20;57.10;;;;;;5048673;28;20304;-67
2022/01/03 04:16:54;;;;;;;;;;;21.10;57.10;;;;;;5051252;28;20381;-67
2022/01/03 04:19:19;;;;;;;;;;;21.20;57.10;;;;;;5049778;28;19913;-67
2022/01/03 04:21:45;;;;;;;;;;;21.10;57.10;;;;;;5048276;28;20111;-67
2022/01/03 04:24:11;;;;;;;;;;;21.20;57.10;;;;;;5049816;28;19909;-67
2022/01/03 04:26:37;;;;;;;;;;;21.20;57.20;;;;;;5047146;28;20269;-67
2022/01/03 04:29:03;;;;;;;;;;;21.10;57.10;;;;;;5047983;28;19920;-66
2022/01/03 04:31:29;;;;;;;;;;;21.10;57.10;;;;;;5046152;28;19913;-67
2022/01/03 04:33:55;;;;;;;;;;;21.10;57.10;;;;;;5050057;28;20271;-66
2022/01/03 04:36:20;;;;;;;;;;;21.10;57.10;;;;;;5048806;28;19964;-68
2022/01/03 04:38:45;;;;;;;;;;;21.10;57.20;;;;;;5045651;28;20003;-69
2022/01/03 04:41:12;;;;;;;;;;;21.10;57.20;;;;;;5044120;28;19939;-66
2022/01/03 04:43:39;;;;;;;;;;;21.10;57.20;;;;;;5043474;28;19905;-69
2022/01/03 04:46:05;;;;;;;;;;;21.10;57.20;;;;;;5043582;28;20280;-66
2022/01/03 04:48:30;;;;;;;;;;;21.10;57.20;;;;;;5050544;28;19905;-67
2022/01/03 04:50:56;;;;;;;;;;;21.10;57.20;;;;;;5048276;28;19999;-69
2022/01/03 04:53:25;;;;;;;;;;;21.10;57.20;;;;;;5048421;28;20043;-67
2022/01/03 04:55:51;;;;;;;;;;;21.10;57.20;;;;;;5047071;28;19908;-66
2022/01/03 04:58:17;;;;;;;;;;;21.10;57.20;;;;;;5050015;28;19916;-67
2022/01/03 05:00:42;;;;;;;;;;;21.10;57.20;;;;;;5046407;28;20276;-70
2022/01/03 05:03:08;;;;;;;;;;;21.00;57.10;;;;;;5049611;28;19977;-66
2022/01/03 05:05:33;;;;;;;;;;;21.00;57.10;;;;;;5045007;28;20292;-66
2022/01/03 05:07:59;;;;;;;;;;;21.00;57.10;;;;;;5046067;28;19909;-66
2022/01/03 05:10:24;;;;;;;;;;;21.10;57.20;;;;;;5045842;28;19912;-67
2022/01/03 05:12:50;;;;;;;;;;;21.00;57.10;;;;;;5048304;28;20651;-70
2022/01/03 05:15:15;;;;;;;;;;;21.00;57.10;;;;;;5048317;28;19909;-67
2022/01/03 05:17:41;;;;;;;;;;;21.00;57.10;;;;;;5049287;28;19917;-67
2022/01/03 05:20:06;;;;;;;;;;;21.00;57.10;;;;;;5044077;28;20190;-66
2022/01/03 05:22:32;;;;;;;;;;;21.00;57.10;;;;;;5047246;28;19909;-68
2022/01/03 05:24:57;;;;;;;;;;;21.00;57.10;;;;;;5044898;28;19909;-66
2022/01/03 05:27:23;;;;;;;;;;;21.00;57.10;;;;;;5050204;28;19913;-66
2022/01/03 05:29:48;;;;;;;;;;;21.00;57.10;;;;;;5044831;28;19912;-69
2022/01/03 05:32:14;;;;;;;;;;;21.00;57.20;;;;;;5048534;28;19913;-66
2022/01/03 05:34:39;;;;;;;;;;;21.00;57.20;;;;;;5048623;28;20000;-68
2022/01/03 05:37:05;;;;;;;;;;;21.00;57.20;;;;;;5046989;28;19928;-66
2022/01/03 05:39:31;;;;;;;;;;;21.00;57.20;;;;;;5045917;28;19935;-67
2022/01/03 05:41:56;;;;;;;;;;;21.00;57.20;;;;;;5043212;28;20404;-67
2022/01/03 05:44:22;;;;;;;;;;;20.90;57.10;;;;;;5048190;28;20423;-66
2022/01/03 05:46:47;;;;;;;;;;;21.00;57.20;;;;;;5048146;28;19924;-70
2022/01/03 05:49:13;;;;;;;;;;;21.00;57.20;;;;;;5049253;28;19974;-69
2022/01/03 05:51:38;;;;;;;;;;;21.00;57.20;;;;;;5044298;28;20573;-67
2022/01/03 05:54:04;;;;;;;;;;;21.00;57.20;;;;;;5046770;28;19917;-67
2022/01/03 05:56:30;;;;;;;;;;;21.00;57.20;;;;;;5047366;28;19909;-70
2022/01/03 05:58:55;;;;;;;;;;;21.00;57.20;;;;;;5047315;28;19916;-69
2022/01/03 06:01:22;;;;;;;;;;;21.00;57.20;;;;;;5044311;28;20512;-67
2022/01/03 06:03:56;;;;;;;;;;;21.00;57.20;;;;;;5047939;28;19950;-66
2022/01/03 06:06:53;;;;;;;;;;;21.00;57.20;;;;;;5046940;28;20229;-67
2022/01/03 06:09:08;;;;;;;;;;;21.00;57.20;;;;;;5046040;28;19923;-70
2022/01/03 06:11:33;;;;;;;;;;;21.00;57.20;;;;;;5048398;28;20317;-65
2022/01/03 06:13:59;;;;;;;;;;;20.90;57.10;;;;;;5044217;28;20046;-70
2022/01/03 06:16:24;;;;;;;;;;;20.90;57.10;;;;;;5044469;28;19917;-66
2022/01/03 06:18:50;;;;;;;;;;;20.90;57.10;;;;;;5045888;28;19921;-67
2022/01/03 06:21:16;;;;;;;;;;;20.90;57.10;;;;;;5045050;28;19917;-67
2022/01/03 06:23:42;;;;;;;;;;;20.90;57.10;;;;;;5047393;28;20332;-69
2022/01/03 06:26:07;;;;;;;;;;;20.90;57.10;;;;;;5045825;28;19961;-66
2022/01/03 06:28:33;;;;;;;;;;;20.90;57.10;;;;;;5046489;28;19916;-66
2022/01/03 06:30:58;;;;;;;;;;;20.90;57.10;;;;;;5046690;28;19916;-66
2022/01/03 06:33:24;;;;;;;;;;;20.90;57.10;;;;;;5047552;28;19908;-66
2022/01/03 06:35:49;;;;;;;;;;;20.90;57.10;;;;;;5042671;28;19912;-67
2022/01/03 06:38:15;;;;;;;;;;;20.90;57.10;;;;;;5041227;28;20187;-66
2022/01/03 06:40:40;;;;;;;;;;;20.90;57.10;;;;;;5043592;28;20080;-68
2022/01/03 06:43:06;;;;;;;;;;;20.90;57.10;;;;;;5043501;28;19915;-65
2022/01/03 06:45:31;;;;;;;;;;;20.90;57.10;;;;;;5044126;28;19932;-70
2022/01/03 06:47:57;;;;;;;;;;;20.90;57.10;;;;;;5045136;28;19932;-70
2022/01/03 06:50:23;;;;;;;;;;;20.80;57.10;;;;;;5039383;28;19920;-66
2022/01/03 06:52:48;;;;;;;;;;;20.90;57.10;;;;;;5042518;28;19909;-70
2022/01/03 06:55:14;;;;;;;;;;;20.90;57.10;;;;;;5040832;28;19927;-67
2022/01/03 06:57:40;;;;;;;;;;;20.90;57.10;;;;;;5045374;28;20004;-70
2022/01/03 07:00:06;;;;;;;;;;;20.90;57.10;;;;;;5046196;28;20561;-67
2022/01/03 07:02:32;;;;;;;;;;;20.90;57.10;;;;;;5044495;28;19979;-66
2022/01/03 07:04:57;;;;;;;;;;;20.90;57.10;;;;;;5047749;28;19956;-67
2022/01/03 07:07:22;;;;;;;;;;;20.90;57.10;;;;;;5045309;28;19905;-66
2022/01/03 07:09:48;;;;;;;;;;;20.90;57.10;;;;;;5043077;28;20629;-66
2022/01/03 07:12:14;;;;;;;;;;;20.90;57.10;;;;;;5045319;28;19912;-66
2022/01/03 07:19:51;;;;;;;;;;;20.80;57.10;;;;;;5041436;28;19923;-70
2022/01/03 07:22:16;;;;;;;;;;;20.90;57.10;;;;;;5042363;28;19913;-66
2022/01/03 07:24:42;;;;;;;;;;;20.80;57.10;;;;;;5044295;28;19913;-66
2022/01/03 07:27:09;;;;;;;;;;;20.80;57.10;;;;;;5042484;28;19909;-66
2022/01/03 07:29:34;;;;;;;;;;;20.80;57.20;;;;;;5043747;28;19912;-67
2022/01/03 07:32:00;;;;;;;;;;;20.80;57.20;;;;;;5044696;28;20004;-70
2022/01/03 07:34:26;;;;;;;;;;;20.80;57.20;;;;;;5055600;28;20116;-66
2022/01/03 07:36:52;;;;;;;;;;;20.80;57.20;;;;;;5039749;28;20388;-67
2022/01/03 07:39:17;;;;;;;;;;;20.80;57.20;;;;;;5045227;28;19915;-70
2022/01/03 07:41:43;;;;;;;;;;;20.80;57.20;;;;;;5042060;28;19956;-67
2022/01/03 07:44:09;;;;;;;;;;;20.80;57.20;;;;;;5042629;28;19920;-66
2022/01/03 07:46:34;;;;;;;;;;;20.80;57.20;;;;;;5041360;28;20395;-67
2022/01/03 07:49:00;;;;;;;;;;;20.80;57.20;;;;;;5045676;28;19939;-67
2022/01/03 07:51:25;;;;;;;;;;;20.80;57.20;;;;;;5038421;28;20003;-65
2022/01/03 07:53:51;;;;;;;;;;;20.80;57.30;;;;;;5043438;28;19904;-70
2022/01/03 07:56:18;;;;;;;;;;;20.80;57.20;;;;;;5044330;28;19939;-67
2022/01/03 07:58:44;;;;;;;;;;;20.80;57.30;;;;;;5046456;28;20425;-67
2022/01/03 08:01:10;;;;;;;;;;;20.80;57.30;;;;;;5044562;28;19920;-65
2022/01/03 08:03:36;;;;;;;;;;;20.80;57.30;;;;;;5043999;28;20007;-67
2022/01/03 08:06:02;;;;;;;;;;;20.80;57.30;;;;;;5045924;28;20540;-70
2022/01/03 08:08:27;;;;;;;;;;;20.80;57.30;;;;;;5036216;28;20009;-65
2022/01/03 08:10:53;;;;;;;;;;;20.80;57.30;;;;;;5042055;28;19991;-67
2022/01/03 08:13:18;;;;;;;;;;;20.80;57.30;;;;;;5046455;28;19924;-70
2022/01/03 08:15:44;;;;;;;;;;;20.80;57.30;;;;;;5044249;28;19905;-67
2022/01/03 08:18:09;;;;;;;;;;;20.80;57.30;;;;;;5044865;28;19962;-67
2022/01/03 08:20:35;;;;;;;;;;;20.80;57.30;;;;;;5045716;28;19908;-67
2022/01/03 08:23:00;;;;;;;;;;;20.80;57.40;;;;;;5043832;28;19913;-69
2022/01/03 08:25:26;;;;;;;;;;;20.80;57.30;;;;;;5044900;28;22131;-66
2022/01/03 08:27:52;;;;;;;;;;;20.80;57.30;;;;;;5044887;28;19908;-67
2022/01/03 08:30:17;;;;;;;;;;;20.80;57.30;;;;;;5044576;28;19920;-67
2022/01/03 08:32:43;;;;;;;;;;;20.80;57.30;;;;;;5044967;28;20041;-67
2022/01/03 08:35:09;;;;;;;;;;;20.80;57.40;;;;;;5043866;28;19919;-67
2022/01/03 08:37:35;;;;;;;;;;;20.80;57.30;;;;;;5038416;28;19934;-69
2022/01/03 08:40:03;;;;;;;;;;;20.80;57.40;;;;;;5039904;28;19908;-67
2022/01/03 08:42:29;;;;;;;;;;;20.80;57.40;;;;;;5043660;28;19908;-67
2022/01/03 08:44:55;;;;;;;;;;;20.80;57.40;;;;;;5041591;28;19920;-67
2022/01/03 08:47:20;;;;;;;;;;;20.80;57.40;;;;;;5043197;28;19905;-67
2022/01/03 08:49:46;;;;;;;;;;;20.80;57.40;;;;;;5043173;28;19912;-66
2022/01/03 08:52:11;;;;;;;;;;;20.80;57.40;;;;;;5038473;28;20275;-67
2022/01/03 08:54:37;;;;;;;;;;;20.80;57.40;;;;;;5039370;28;20092;-67
2022/01/03 08:57:02;;;;;;;;;;;20.80;57.40;;;;;;5047399;28;19966;-70
2022/01/03 08:59:28;;;;;;;;;;;20.80;57.50;;;;;;5045316;28;19983;-68
2022/01/03 09:01:54;;;;;;;;;;;20.70;57.40;;;;;;5047852;28;20019;-67
2022/01/03 09:04:19;;;;;;;;;;;20.70;57.30;;;;;;5047902;28;19954;-67
2022/01/03 09:06:45;;;;;;;;;;;20.70;57.40;;;;;;5044361;28;20355;-67
2022/01/03 09:09:10;;;;;;;;;;;20.80;57.40;;;;;;5046579;28;19982;-67
2022/01/03 09:11:36;;;;;;;;;;;20.70;57.40;;;;;;5045778;28;20256;-67
2022/01/03 09:14:01;;;;;;;;;;;20.70;57.40;;;;;;5047333;28;20003;-67
2022/01/03 09:16:27;;;;;;;;;;;20.70;57.40;;;;;;5049161;28;19959;-70
2022/01/03 09:18:52;;;;;;;;;;;20.70;57.40;;;;;;5046113;28;19951;-67
2022/01/03 09:21:19;;;;;;;;;;;20.70;57.40;;;;;;5045277;28;20007;-68
2022/01/03 09:23:48;;;;;;;;;;;20.70;57.40;;;;;;5045921;28;20031;-65
2022/01/03 09:28:59;;;;;;;;;;;20.70;57.40;;;;;;5048119;28;20364;-65
2022/01/03 09:31:29;;;;;;;;;;;20.70;57.50;;;;;;5045597;28;19939;-69
2022/01/03 09:33:55;;;;;;;;;;;20.70;57.50;;;;;;5047021;28;20339;-69
2022/01/03 09:36:21;;;;;;;;;;;20.70;57.50;;;;;;5045110;28;19915;-67
2022/01/03 09:38:47;;;;;;;;;;;20.70;57.40;;;;;;5041285;28;20293;-67
2022/01/03 09:41:13;;;;;;;;;;;20.70;57.50;;;;;;5045420;28;19923;-66
2022/01/03 09:44:11;;;;;;;;;;;20.70;57.50;;;;;;5041397;28;19967;-65
2022/01/03 09:46:38;;;;;;;;;;;20.70;57.40;;;;;;5022754;28;19986;-66
2022/01/03 09:49:06;;;;;;;;;;;20.70;57.50;;;;;;5042800;28;19920;-69
2022/01/03 09:51:32;;;;;;;;;;;20.70;57.50;;;;;;5047823;28;19968;-69
2022/01/03 09:54:04;;;;;;;;;;;20.70;57.50;;;;;;5040096;28;20209;-66
2022/01/03 09:56:31;;;;;;;;;;;20.70;57.60;;;;;;5044874;28;20001;-69
2022/01/03 09:58:57;;;;;;;;;;;20.70;57.50;;;;;;5043782;28;19923;-67
2022/01/03 10:01:24;;;;;;;;;;;20.70;57.50;;;;;;5038790;28;19932;-68
2022/01/03 10:03:49;;;;;;;;;;;20.70;57.60;;;;;;5049389;28;19909;-68
2022/01/03 10:06:18;;;;;;;;;;;20.80;57.90;;;;;;5051259;28;19920;-69
2022/01/03 10:08:44;;;;;;;;;;;20.80;58.10;;;;;;5052637;28;19913;-69
2022/01/03 10:11:10;;;;;;;;;;;20.80;58.10;;;;;;5045096;28;20023;-66
2022/01/03 10:13:35;;;;;;;;;;;20.80;58.00;;;;;;5039742;28;19917;-67
2022/01/03 10:16:01;;;;;;;;;;;20.80;58.00;;;;;;5040790;28;20051;-66
2022/01/03 10:18:26;;;;;;;;;;;20.80;57.90;;;;;;5042413;28;20003;-65
2022/01/03 10:20:52;;;;;;;;;;;20.90;57.80;;;;;;5036365;28;19947;-66
2022/01/03 10:23:18;;;;;;;;;;;20.90;57.60;;;;;;5039014;28;20414;-66
2022/01/03 10:25:46;;;;;;;;;;;21.00;57.60;;;;;;5039355;28;19916;-69
2022/01/03 10:28:20;;;;;;;;;;;21.00;57.50;;;;;;5038351;28;19975;-67
2022/01/03 10:30:45;;;;;;;;;;;21.10;57.40;;;;;;5037951;28;20351;-67
2022/01/03 10:33:16;;;;;;;;;;;21.10;57.30;;;;;;5041919;28;19908;-67
2022/01/03 10:35:41;;;;;;;;;;;21.10;57.30;;;;;;5040461;28;20102;-69
2022/01/03 10:38:08;;;;;;;;;;;21.20;57.20;;;;;;5035847;28;20674;-68
2022/01/03 10:40:34;;;;;;;;;;;21.20;57.20;;;;;;5037579;28;19913;-67
2022/01/03 10:43:16;;;;;;;;;;;21.20;57.10;;;;;;5038207;28;19981;-69
2022/01/03 10:45:43;;;;;;;;;;;21.20;57.00;;;;;;5039586;28;19912;-67
2022/01/03 10:48:27;;;;;;;;;;;21.30;57.00;;;;;;5035656;28;19990;-68
2022/01/03 10:50:55;;;;;;;;;;;21.30;57.00;;;;;;5038344;28;20007;-67
2022/01/03 10:53:37;;;;;;;;;;;21.40;56.90;;;;;;5036124;28;19986;-66
2022/01/03 10:56:23;;;;;;;;;;;21.30;56.90;;;;;;5038938;28;19916;-67
2022/01/03 10:58:49;;;;;;;;;;;21.40;56.80;;;;;;5040019;28;19960;-69
2022/01/03 11:01:22;;;;;;;;;;;21.40;56.70;;;;;;5035757;28;19925;-65
2022/01/03 11:03:48;;;;;;;;;;;21.40;56.60;;;;;;5034076;28;19916;-65
2022/01/03 11:06:23;;;;;;;;;;;21.50;56.60;;;;;;5040017;28;20462;-69
2022/01/03 11:11:38;;;;;;;;;;;21.50;56.60;;;;;;5035998;28;19987;-69
2022/01/03 11:14:03;;;;;;;;;;;21.50;56.40;;;;;;5035893;28;19917;-69
2022/01/03 11:16:34;;;;;;;;;;;21.50;56.40;;;;;;5037335;28;20822;-66
2022/01/03 11:18:59;;;;;;;;;;;21.60;56.40;;;;;;5036650;28;19917;-65
2022/01/03 11:21:26;;;;;;;;;;;21.60;56.40;;;;;;5038542;28;20053;-67
2022/01/03 11:24:00;;;;;;;;;;;21.60;56.40;;;;;;5035469;28;19913;-69
2022/01/03 11:26:26;;;;;;;;;;;21.60;56.50;;;;;;5036689;28;19939;-67
2022/01/03 11:28:52;;;;;;;;;;;21.60;56.40;;;;;;5035572;28;19917;-67
2022/01/03 11:31:19;;;;;;;;;;;21.60;56.40;;;;;;5037048;28;19934;-69
2022/01/03 11:33:46;;;;;;;;;;;21.70;56.40;;;;;;5036820;28;19990;-67
2022/01/03 11:36:12;;;;;;;;;;;21.70;56.30;;;;;;5037024;28;19913;-67
2022/01/03 11:38:39;;;;;;;;;;;21.60;56.30;;;;;;5037520;28;19927;-67
2022/01/03 11:41:05;;;;;;;;;;;21.60;56.20;;;;;;5039824;28;19933;-67
2022/01/03 11:43:32;;;;;;;;;;;21.70;56.20;;;;;;5035895;28;19919;-67
2022/01/03 11:45:58;;;;;;;;;;;21.70;56.20;;;;;;5038488;28;19913;-69
2022/01/03 11:48:28;;;;;;;;;;;21.70;56.20;;;;;;5038873;28;19935;-66
2022/01/03 11:50:55;;;;;;;;;;;21.70;56.10;;;;;;5035552;28;19924;-67
2022/01/03 11:53:23;;;;;;;;;;;21.70;56.20;;;;;;5034236;28;20002;-67
2022/01/03 11:55:56;;;;;;;;;;;21.70;56.10;;;;;;5040953;28;19935;-68
2022/01/03 11:58:43;;;;;;;;;;;21.60;56.10;;;;;;5039710;28;19917;-67
2022/01/03 12:04:10;;;;;;;;;;;21.70;56.10;;;;;;4993063;28;20273;-66
2022/01/03 12:06:36;;;;;;;;;;;21.70;56.20;;;;;;5052466;28;19916;-66
2022/01/03 12:09:06;;;;;;;;;;;21.80;56.10;;;;;;5039706;28;19998;-67
2022/01/03 12:11:33;;;;;;;;;;;21.90;55.90;;;;;;5035970;28;19912;-67
2022/01/03 12:14:04;;;;;;;;;;;22.00;55.70;;;;;;5036248;28;20011;-67
2022/01/03 12:16:40;;;;;;;;;;;22.00;55.60;;;;;;5034801;28;19917;-66
2022/01/03 12:19:07;;;;;;;;;;;22.00;55.50;;;;;;5040898;28;19994;-70
2022/01/03 12:21:48;;;;;;;;;;;22.00;55.60;;;;;;5034491;28;19917;-65
2022/01/03 12:24:26;;;;;;;;;;;22.00;55.50;;;;;;5039565;28;19913;-67
2022/01/03 12:27:10;;;;;;;;;;;22.00;55.50;;;;;;5054638;28;20601;-68
2022/01/03 12:29:54;;;;;;;;;;;22.00;55.50;;;;;;5035302;28;19917;-67
2022/01/03 12:32:31;;;;;;;;;;;22.00;55.30;;;;;;5043831;28;20023;-67
2022/01/03 12:35:06;;;;;;;;;;;22.00;55.20;;;;;;5042092;28;19924;-69
2022/01/03 12:37:32;;;;;;;;;;;22.00;55.30;;;;;;5055991;28;19909;-65
2022/01/03 12:40:03;;;;;;;;;;;22.10;55.30;;;;;;5044447;28;20233;-69
2022/01/03 12:42:54;;;;;;;;;;;22.10;55.40;;;;;;5041881;28;19967;-68
2022/01/03 12:45:25;;;;;;;;;;;22.10;55.30;;;;;;5038241;28;19924;-66
2022/01/03 12:47:51;;;;;;;;;;;22.10;55.20;;;;;;5059127;28;19923;-66
2022/01/03 12:50:29;;;;;;;;;;;22.10;55.30;;;;;;5042936;28;19920;-69
2022/01/03 12:52:59;;;;;;;;;;;22.10;55.30;;;;;;5041866;28;20548;-69
2022/01/03 12:55:37;;;;;;;;;;;22.10;55.20;;;;;;5034659;28;19952;-70
2022/01/03 12:58:14;;;;;;;;;;;22.20;55.30;;;;;;5039494;28;19916;-68
2022/01/03 13:00:44;;;;;;;;;;;22.20;55.20;;;;;;5035876;28;20272;-68
2022/01/03 13:03:19;;;;;;;;;;;22.20;55.10;;;;;;5044022;28;20427;-66
2022/01/03 13:06:04;;;;;;;;;;;22.10;55.10;;;;;;5038636;28;19912;-68
2022/01/03 13:08:30;;;;;;;;;;;22.20;55.10;;;;;;5041345;28;19924;-69
2022/01/03 13:10:59;;;;;;;;;;;22.20;55.00;;;;;;5033725;28;20501;-66
2022/01/03 13:13:27;;;;;;;;;;;22.20;55.00;;;;;;5041791;28;19913;-66
2022/01/03 13:15:53;;;;;;;;;;;22.20;54.80;;;;;;5040229;28;19934;-70
2022/01/03 13:18:19;;;;;;;;;;;22.20;55.00;;;;;;5041989;28;20616;-68
2022/01/03 13:20:54;;;;;;;;;;;22.30;55.10;;;;;;5039428;28;20275;-66
2022/01/03 13:23:19;;;;;;;;;;;22.20;55.00;;;;;;5037029;28;20624;-68
2022/01/03 13:25:45;;;;;;;;;;;22.20;55.00;;;;;;5037869;28;19985;-66
2022/01/03 13:28:11;;;;;;;;;;;22.20;55.10;;;;;;5041817;28;19909;-66
2022/01/03 13:30:36;;;;;;;;;;;22.20;55.20;;;;;;5038480;28;21924;-68
2022/01/03 13:33:02;;;;;;;;;;;22.20;55.10;;;;;;5041474;28;19920;-66
2022/01/03 13:35:27;;;;;;;;;;;22.20;55.10;;;;;;5039334;28;19908;-67
2022/01/03 13:37:53;;;;;;;;;;;22.20;55.10;;;;;;5038205;28;19952;-67
2022/01/03 13:40:21;;;;;;;;;;;22.20;55.00;;;;;;5040207;28;19913;-67
2022/01/03 13:42:59;;;;;;;;;;;22.20;54.90;;;;;;5037894;28;20012;-67
2022/01/03 13:51:06;;;;;;;;;;;22.30;54.90;;;;;;5040445;28;20015;-68
2022/01/03 13:53:32;;;;;;;;;;;22.30;54.80;;;;;;5039559;28;20735;-69
2022/01/03 13:55:58;;;;;;;;;;;22.20;54.70;;;;;;5036363;28;19936;-68
2022/01/03 13:58:25;;;;;;;;;;;22.30;54.80;;;;;;5041708;28;20015;-68
2022/01/03 14:00:55;;;;;;;;;;;22.20;54.70;;;;;;5036935;28;19928;-66
2022/01/03 14:03:22;;;;;;;;;;;22.20;54.80;;;;;;5038884;28;19920;-67
2022/01/03 14:05:48;;;;;;;;;;;22.30;54.70;;;;;;5039264;28;20471;-67
2022/01/03 14:08:18;;;;;;;;;;;22.20;54.70;;;;;;5039177;28;19989;-68
2022/01/03 14:10:46;;;;;;;;;;;22.20;54.80;;;;;;5038735;28;20738;-67
2022/01/03 14:13:16;;;;;;;;;;;22.20;54.70;;;;;;5040248;28;19912;-67
2022/01/03 14:16:17;;;;;;;;;;;22.20;54.70;;;;;;5040488;28;19919;-67
2022/01/03 14:18:46;;;;;;;;;;;22.20;54.80;;;;;;4991123;28;19917;-68
2022/01/03 14:21:16;;;;;;;;;;;22.20;54.70;;;;;;5029347;28;19923;-66
2022/01/03 14:23:49;;;;;;;;;;;22.20;54.70;;;;;;5036573;28;21689;-66
2022/01/03 14:26:16;;;;;;;;;;;22.20;54.90;;;;;;5053255;28;19916;-66
2022/01/03 14:28:42;;;;;;;;;;;22.20;54.90;;;;;;5033700;28;19916;-68
2022/01/03 14:31:08;;;;;;;;;;;22.20;54.90;;;;;;5036592;28;19986;-68
2022/01/03 14:33:37;;;;;;;;;;;22.20;54.90;;;;;;5037613;28;20740;-68
2022/01/03 14:36:18;;;;;;;;;;;22.20;54.90;;;;;;5036584;28;20024;-67
2022/01/03 14:38:45;;;;;;;;;;;22.20;54.80;;;;;;5035953;28;19961;-66
2022/01/03 14:41:22;;;;;;;;;;;22.20;54.80;;;;;;5035507;28;19912;-69